Time;durP1;ratioP1;P1;durP2;ratioP2;P2;SDS_P1;SDS_P2;PMS_P1;PMS_P2;Temp;Humidity;BMP_temperature;BMP_pressure;BME280_temperature;BME280_humidity;BME280_pressure;Samples;Min_cycle;Max_cycle;Signal;HPM_P1;HPM_P2
2022/03/06 00:00:50;;;;;;;10.00;4.93;;;-4.10;92.50;;;;;;2106072;28;20288;-70
2022/03/06 00:01:50;;;;;;;11.27;5.63;;;-4.10;92.50;;;;;;2105556;28;20186;-70
2022/03/06 00:02:51;;;;;;;11.33;5.37;;;-4.10;92.70;;;;;;2096984;28;20215;-70
2022/03/06 00:03:52;;;;;;;11.47;5.40;;;-4.10;93.00;;;;;;2105345;28;20229;-70
2022/03/06 00:04:53;;;;;;;12.05;6.28;;;-4.10;93.00;;;;;;2105991;28;20186;-70
2022/03/06 00:05:54;;;;;;;11.10;6.70;;;-4.10;93.20;;;;;;2105620;28;20190;-70
2022/03/06 00:06:54;;;;;;;12.93;6.23;;;-4.10;93.10;;;;;;2105981;28;20549;-70
2022/03/06 00:07:56;;;;;;;13.37;6.50;;;-4.10;93.20;;;;;;2105999;28;20203;-71
2022/03/06 00:08:56;;;;;;;9.85;5.80;;;-4.00;93.20;;;;;;2105859;28;20196;-70
2022/03/06 00:09:57;;;;;;;12.97;6.30;;;-4.00;93.00;;;;;;2106107;28;20607;-71
2022/03/06 00:10:58;;;;;;;14.50;5.57;;;-4.00;93.20;;;;;;2105312;28;20206;-71
2022/03/06 00:11:58;;;;;;;10.97;6.63;;;-4.00;93.20;;;;;;2088753;28;20270;-71
2022/03/06 00:12:59;;;;;;;13.70;5.97;;;-4.10;93.20;;;;;;2097007;28;20179;-70
2022/03/06 00:14:00;;;;;;;9.70;5.67;;;-4.10;93.20;;;;;;2105966;28;20207;-70
2022/03/06 00:15:00;;;;;;;10.67;5.97;;;-4.10;93.20;;;;;;2105392;28;20179;-70
2022/03/06 00:16:01;;;;;;;10.90;6.67;;;-4.10;93.10;;;;;;2102547;28;20253;-71
2022/03/06 00:17:02;;;;;;;13.30;6.33;;;-4.00;93.00;;;;;;2095356;28;20225;-70
2022/03/06 00:18:03;;;;;;;11.00;5.60;;;-4.00;92.80;;;;;;2097593;28;20203;-71
2022/03/06 00:19:03;;;;;;;8.77;5.13;;;-4.10;92.70;;;;;;2097555;28;20217;-71
2022/03/06 00:20:08;;;;;;;12.30;6.53;;;-4.10;92.70;;;;;;2096885;28;20690;-71
2022/03/06 00:21:11;;;;;;;10.43;6.25;;;-4.10;92.60;;;;;;2095274;28;20175;-71
2022/03/06 00:22:12;;;;;;;10.25;4.72;;;-4.10;92.90;;;;;;2095210;28;20266;-71
2022/03/06 00:23:13;;;;;;;13.60;6.83;;;-4.20;92.90;;;;;;2096857;28;20603;-70
2022/03/06 00:24:13;;;;;;;10.83;4.97;;;-4.20;92.90;;;;;;2089373;28;20195;-71
2022/03/06 00:25:14;;;;;;;12.90;5.83;;;-4.20;93.00;;;;;;2088589;28;20181;-70
2022/03/06 00:26:15;;;;;;;10.90;5.43;;;-4.20;93.00;;;;;;2089590;28;20176;-71
2022/03/06 00:27:16;;;;;;;11.50;5.93;;;-4.20;93.10;;;;;;2089741;28;20626;-71
2022/03/06 00:28:16;;;;;;;11.20;5.83;;;-4.20;93.30;;;;;;2089700;28;20199;-71
2022/03/06 00:29:17;;;;;;;10.43;6.20;;;-4.20;93.30;;;;;;2090164;28;20260;-70
2022/03/06 00:30:18;;;;;;;10.47;5.40;;;-4.30;93.50;;;;;;2092386;28;20175;-71
2022/03/06 00:31:18;;;;;;;11.07;6.30;;;-4.20;93.90;;;;;;2091885;28;20581;-71
2022/03/06 00:32:19;;;;;;;11.30;5.43;;;-4.20;93.60;;;;;;2083523;28;20184;-72
2022/03/06 00:33:20;;;;;;;12.37;5.63;;;-4.20;93.50;;;;;;2083232;28;20189;-72
2022/03/06 00:34:20;;;;;;;11.50;5.00;;;-4.30;93.30;;;;;;2091796;28;20188;-72
2022/03/06 00:35:22;;;;;;;11.37;6.20;;;-4.30;93.40;;;;;;2090940;28;20182;-71
2022/03/06 00:36:23;;;;;;;11.20;5.90;;;-4.30;93.40;;;;;;2091533;28;20180;-70
2022/03/06 00:37:24;;;;;;;10.57;5.97;;;-4.30;93.40;;;;;;2091142;28;20188;-71
2022/03/06 00:38:24;;;;;;;13.10;6.77;;;-4.40;93.60;;;;;;2089609;28;20207;-71
2022/03/06 00:39:25;;;;;;;10.47;5.37;;;-4.40;93.80;;;;;;2090311;28;20180;-71
2022/03/06 00:40:26;;;;;;;11.73;5.97;;;-4.40;93.60;;;;;;2090784;28;20206;-71
2022/03/06 00:41:27;;;;;;;11.83;5.80;;;-4.40;93.70;;;;;;2090702;28;20258;-71
2022/03/06 00:42:27;;;;;;;12.07;6.30;;;-4.40;93.80;;;;;;2089961;28;20246;-71
2022/03/06 00:43:28;;;;;;;11.17;5.73;;;-4.40;93.80;;;;;;2082109;28;20181;-71
2022/03/06 00:44:29;;;;;;;11.10;6.17;;;-4.40;93.70;;;;;;2090064;28;20180;-71
2022/03/06 00:45:29;;;;;;;11.47;6.07;;;-4.40;93.90;;;;;;2089297;28;20192;-71
2022/03/06 00:46:30;;;;;;;12.90;6.17;;;-4.50;94.30;;;;;;2089776;28;20307;-71
2022/03/06 00:47:31;;;;;;;12.23;5.87;;;-4.50;94.50;;;;;;2090697;28;20187;-71
2022/03/06 00:48:31;;;;;;;9.93;6.57;;;-4.50;94.40;;;;;;2090260;28;20230;-71
2022/03/06 00:49:33;;;;;;;12.70;6.90;;;-4.50;94.50;;;;;;2090388;28;20176;-71
2022/03/06 00:50:37;;;;;;;13.68;5.55;;;-4.50;94.50;;;;;;2089011;28;20204;-71
2022/03/06 00:51:38;;;;;;;10.45;5.93;;;-4.40;94.40;;;;;;2081140;28;20659;-71
2022/03/06 00:52:39;;;;;;;13.18;6.25;;;-4.40;94.40;;;;;;2080717;28;20169;-71
2022/03/06 00:53:41;;;;;;;14.82;6.47;;;-4.40;94.30;;;;;;2072418;28;20236;-70
2022/03/06 00:54:42;;;;;;;12.20;6.00;;;-4.40;94.30;;;;;;2072616;28;20189;-71
2022/03/06 00:55:43;;;;;;;14.17;5.90;;;-4.50;94.10;;;;;;2088324;28;20545;-70
2022/03/06 00:56:43;;;;;;;11.47;6.20;;;-4.50;94.20;;;;;;2088925;28;20204;-72
2022/03/06 00:57:44;;;;;;;13.03;6.03;;;-4.50;94.30;;;;;;2089159;28;20627;-70
2022/03/06 00:58:45;;;;;;;10.83;5.60;;;-4.50;94.40;;;;;;2088505;28;20180;-70
2022/03/06 00:59:45;;;;;;;13.20;6.73;;;-4.50;94.50;;;;;;2088509;28;20226;-71
2022/03/06 01:00:48;;;;;;;13.00;6.40;;;-4.50;94.40;;;;;;2089235;28;20184;-70
2022/03/06 01:01:48;;;;;;;11.20;5.68;;;-4.60;94.40;;;;;;2088661;28;20180;-71
2022/03/06 01:02:49;;;;;;;13.33;6.17;;;-4.50;94.60;;;;;;2088434;28;20277;-70
2022/03/06 01:03:50;;;;;;;14.20;6.20;;;-4.50;94.50;;;;;;2089430;28;20230;-71
2022/03/06 01:04:50;;;;;;;10.77;5.70;;;-4.50;94.40;;;;;;2089052;28;20284;-70
2022/03/06 01:05:51;;;;;;;13.47;6.13;;;-4.50;94.50;;;;;;2087899;28;20225;-70
2022/03/06 01:06:52;;;;;;;13.90;7.90;;;-4.50;94.30;;;;;;2088547;28;20184;-70
2022/03/06 01:07:52;;;;;;;13.50;6.23;;;-4.50;94.30;;;;;;2089128;28;20216;-70
2022/03/06 01:08:53;;;;;;;12.53;5.93;;;-4.60;94.30;;;;;;2089108;28;20275;-70
2022/03/06 01:09:54;;;;;;;10.23;5.43;;;-4.60;94.50;;;;;;2088581;28;20230;-71
2022/03/06 01:10:55;;;;;;;11.93;5.70;;;-4.70;94.50;;;;;;2080633;28;20592;-70
2022/03/06 01:11:56;;;;;;;13.30;6.22;;;-4.70;94.50;;;;;;2080392;28;20173;-70
2022/03/06 01:12:58;;;;;;;9.73;5.50;;;-4.70;94.70;;;;;;2088610;28;20720;-70
2022/03/06 01:13:59;;;;;;;11.65;5.85;;;-4.70;94.70;;;;;;2096773;28;20458;-70
2022/03/06 01:15:00;;;;;;;13.37;6.67;;;-4.60;94.50;;;;;;2097111;28;20199;-70
2022/03/06 01:16:00;;;;;;;14.30;5.70;;;-4.70;94.70;;;;;;2088601;28;20172;-70
2022/03/06 01:17:01;;;;;;;11.30;5.80;;;-4.70;94.80;;;;;;2089348;28;20671;-70
2022/03/06 01:18:03;;;;;;;16.97;7.27;;;-4.70;95.00;;;;;;2089127;28;20196;-70
2022/03/06 01:19:04;;;;;;;12.68;6.63;;;-4.70;95.10;;;;;;2089258;28;20184;-70
2022/03/06 01:20:06;;;;;;;10.33;5.33;;;-4.70;95.10;;;;;;2088312;28;20192;-70
2022/03/06 01:21:07;;;;;;;14.05;5.30;;;-4.70;95.00;;;;;;2088574;28;20655;-70
2022/03/06 01:22:08;;;;;;;12.65;6.13;;;-4.70;95.30;;;;;;2088403;28;20587;-70
2022/03/06 01:23:09;;;;;;;9.23;5.10;;;-4.70;95.50;;;;;;2088500;28;20191;-70
2022/03/06 01:24:10;;;;;;;12.07;5.57;;;-4.70;95.50;;;;;;2088311;28;20187;-70
2022/03/06 01:25:12;;;;;;;9.93;5.18;;;-4.70;95.50;;;;;;2088419;28;20184;-70
2022/03/06 01:26:12;;;;;;;12.23;5.53;;;-4.70;95.40;;;;;;2088229;28;20181;-70
2022/03/06 01:27:13;;;;;;;12.50;6.33;;;-4.80;95.40;;;;;;2080149;28;20177;-70
2022/03/06 01:28:14;;;;;;;14.17;6.10;;;-4.80;95.50;;;;;;2080134;28;20208;-70
2022/03/06 01:29:14;;;;;;;10.90;5.90;;;-4.80;95.30;;;;;;2088356;28;20171;-71
2022/03/06 01:30:15;;;;;;;12.33;6.63;;;-4.80;95.60;;;;;;2088919;28;20651;-70
2022/03/06 01:31:16;;;;;;;11.33;6.57;;;-4.80;95.60;;;;;;2089082;28;20175;-70
2022/03/06 01:32:17;;;;;;;11.10;5.70;;;-4.90;95.50;;;;;;2088856;28;20504;-70
2022/03/06 01:33:17;;;;;;;13.83;6.23;;;-4.90;95.70;;;;;;2089077;28;20180;-71
2022/03/06 01:34:18;;;;;;;12.27;5.97;;;-4.90;95.80;;;;;;2088870;28;20915;-70
2022/03/06 01:35:20;;;;;;;11.30;6.23;;;-4.90;95.90;;;;;;2087728;28;20196;-70
2022/03/06 01:36:20;;;;;;;13.98;6.63;;;-4.90;96.40;;;;;;2088250;28;20196;-71
2022/03/06 01:37:21;;;;;;;12.27;6.20;;;-4.90;96.40;;;;;;2088893;28;20544;-70
2022/03/06 01:38:22;;;;;;;9.37;5.40;;;-4.80;96.40;;;;;;2088477;28;20188;-70
2022/03/06 01:39:23;;;;;;;13.75;6.05;;;-4.80;96.10;;;;;;2080214;28;20181;-70
2022/03/06 01:40:24;;;;;;;11.90;5.63;;;-4.90;95.90;;;;;;2080029;28;20255;-70
2022/03/06 01:41:25;;;;;;;10.93;5.73;;;-4.90;96.10;;;;;;2088262;28;20181;-71
2022/03/06 01:42:26;;;;;;;11.27;5.53;;;-4.90;96.10;;;;;;2088132;28;20263;-71
2022/03/06 01:43:27;;;;;;;12.43;5.95;;;-4.90;96.20;;;;;;2080196;28;20257;-71
2022/03/06 01:44:28;;;;;;;13.33;5.57;;;-4.90;96.10;;;;;;2088207;28;20735;-71
2022/03/06 01:45:29;;;;;;;14.53;6.57;;;-4.90;96.30;;;;;;2088317;28;21067;-71
2022/03/06 01:46:29;;;;;;;14.20;6.57;;;-5.00;96.30;;;;;;2088203;28;20250;-71
2022/03/06 01:47:42;;;;;;;14.60;6.73;;;-5.00;96.30;;;;;;2088118;28;20196;-71
2022/03/06 01:48:43;;;;;;;17.25;6.72;;;-5.00;96.50;;;;;;2089005;28;20167;-71
2022/03/06 01:49:43;;;;;;;13.53;6.47;;;-5.00;96.70;;;;;;2088880;28;20187;-71
2022/03/06 01:50:45;;;;;;;13.23;6.47;;;-5.00;96.80;;;;;;2088207;28;20275;-71
2022/03/06 01:51:45;;;;;;;12.85;6.00;;;-5.00;97.20;;;;;;2080175;28;20634;-71
2022/03/06 01:52:49;;;;;;;13.17;6.80;;;-5.00;97.10;;;;;;2080130;28;20184;-71
2022/03/06 01:53:49;;;;;;;16.45;6.88;;;-5.00;97.00;;;;;;2080371;28;21001;-71
2022/03/06 01:54:50;;;;;;;11.63;5.73;;;-5.00;96.90;;;;;;2088106;28;20185;-71
2022/03/06 01:55:51;;;;;;;10.37;5.77;;;-5.00;96.80;;;;;;2088380;28;20191;-71
2022/03/06 01:56:52;;;;;;;9.70;5.67;;;-5.00;96.90;;;;;;2088901;28;20184;-71
2022/03/06 01:57:56;;;;;;;12.30;5.90;;;-5.00;96.80;;;;;;2088736;28;20179;-71
2022/03/06 01:58:58;;;;;;;12.60;6.57;;;-5.00;96.80;;;;;;2089243;28;20631;-71
2022/03/06 02:00:05;;;;;;;15.95;7.18;;;-5.00;96.90;;;;;;2080078;28;20254;-71
2022/03/06 02:01:06;;;;;;;14.93;6.13;;;-5.00;96.80;;;;;;2088115;28;20180;-71
2022/03/06 02:02:07;;;;;;;11.17;5.67;;;-5.00;97.00;;;;;;2088881;28;20184;-71
2022/03/06 02:03:08;;;;;;;14.03;5.97;;;-5.00;97.00;;;;;;2088758;28;20177;-71
2022/03/06 02:04:09;;;;;;;11.52;6.90;;;-5.00;97.10;;;;;;2088175;28;20176;-71
2022/03/06 02:05:10;;;;;;;14.23;6.50;;;-5.00;97.10;;;;;;2087521;28;20196;-70
2022/03/06 02:06:11;;;;;;;13.68;6.50;;;-5.00;97.00;;;;;;2088233;28;20185;-70
2022/03/06 02:07:12;;;;;;;13.40;5.93;;;-5.10;96.70;;;;;;2088154;28;20191;-70
2022/03/06 02:08:12;;;;;;;12.57;6.20;;;-5.10;97.30;;;;;;2091101;28;20211;-70
2022/03/06 02:09:13;;;;;;;11.97;5.67;;;-5.20;96.80;;;;;;2096345;28;20183;-71
2022/03/06 02:10:14;;;;;;;10.73;5.87;;;-5.20;97.00;;;;;;2088046;28;20165;-71
2022/03/06 02:11:16;;;;;;;13.53;6.67;;;-5.30;97.30;;;;;;2088688;28;20794;-71
2022/03/06 02:12:26;;;;;;;10.77;5.53;;;-5.30;97.50;;;;;;2089643;28;20705;-71
2022/03/06 02:13:27;;;;;;;13.52;6.07;;;-5.30;97.60;;;;;;2090929;28;20177;-71
2022/03/06 02:14:27;;;;;;;11.07;4.78;;;-5.20;97.40;;;;;;2098038;28;20180;-71
2022/03/06 02:15:28;;;;;;;9.53;5.43;;;-5.20;97.20;;;;;;2098234;28;20190;-71
2022/03/06 02:16:32;;;;;;;13.45;6.07;;;-5.20;96.80;;;;;;2098636;28;20180;-71
2022/03/06 02:17:33;;;;;;;10.40;5.30;;;-5.10;96.80;;;;;;2097873;28;20179;-71
2022/03/06 02:18:34;;;;;;;12.37;5.90;;;-5.10;96.70;;;;;;2097860;28;20223;-71
2022/03/06 02:19:56;;;;;;;9.77;6.03;;;-5.10;96.50;;;;;;2098562;28;20635;-72
2022/03/06 02:20:57;;;;;;;7.97;4.97;;;-5.10;96.80;;;;;;2092704;28;20664;-71
2022/03/06 02:21:57;;;;;;;11.07;6.15;;;-5.10;96.80;;;;;;2089484;28;20660;-71
2022/03/06 02:22:59;;;;;;;11.40;5.87;;;-5.10;96.80;;;;;;2090310;28;20191;-71
2022/03/06 02:23:59;;;;;;;12.13;6.13;;;-5.10;96.80;;;;;;2097884;28;20210;-71
2022/03/06 02:25:05;;;;;;;12.20;6.30;;;-5.10;96.70;;;;;;2097726;28;20716;-71
2022/03/06 02:26:07;;;;;;;13.60;6.82;;;-5.10;96.90;;;;;;2097459;28;20593;-70
2022/03/06 02:27:08;;;;;;;13.15;6.28;;;-5.00;96.90;;;;;;2089546;28;20218;-70
2022/03/06 02:28:10;;;;;;;12.20;6.10;;;-5.10;96.80;;;;;;2081164;28;20215;-70
2022/03/06 02:29:11;;;;;;;14.05;6.40;;;-5.10;96.90;;;;;;2089662;28;20184;-70
2022/03/06 02:30:16;;;;;;;10.30;5.53;;;-5.00;96.90;;;;;;2097874;28;20203;-70
2022/03/06 02:31:16;;;;;;;12.65;6.22;;;-5.00;96.80;;;;;;2097814;28;20262;-70
2022/03/06 02:32:20;;;;;;;13.40;6.20;;;-5.10;96.60;;;;;;2089541;28;20180;-70
2022/03/06 02:33:22;;;;;;;12.50;6.00;;;-5.10;96.80;;;;;;2081756;28;20173;-70
2022/03/06 02:34:23;;;;;;;13.20;6.13;;;-5.10;97.00;;;;;;2089564;28;20230;-70
2022/03/06 02:35:24;;;;;;;12.80;6.67;;;-5.10;96.90;;;;;;2089616;28;20200;-70
2022/03/06 02:36:25;;;;;;;12.13;5.72;;;-5.10;96.80;;;;;;2089564;28;20177;-70
2022/03/06 02:37:25;;;;;;;13.40;6.37;;;-5.20;97.00;;;;;;2089707;28;20691;-70
2022/03/06 02:38:26;;;;;;;10.63;5.47;;;-5.20;96.90;;;;;;2090319;28;20725;-71
2022/03/06 02:39:27;;;;;;;14.37;6.27;;;-5.20;97.30;;;;;;2097778;28;20175;-71
2022/03/06 02:40:28;;;;;;;13.60;6.40;;;-5.20;97.20;;;;;;2097848;28;20203;-71
2022/03/06 02:41:34;;;;;;;12.02;6.13;;;-5.20;97.00;;;;;;2097586;28;20597;-71
2022/03/06 02:42:38;;;;;;;13.48;6.60;;;-5.20;97.20;;;;;;2097926;28;20168;-71
2022/03/06 02:43:39;;;;;;;12.15;6.47;;;-5.20;97.20;;;;;;2089476;28;20176;-71
2022/03/06 02:44:40;;;;;;;13.20;6.50;;;-5.30;97.40;;;;;;2089388;28;20214;-71
2022/03/06 02:45:42;;;;;;;12.87;6.77;;;-5.30;97.60;;;;;;2088759;28;20221;-71
2022/03/06 02:46:46;;;;;;;10.95;5.90;;;-5.20;97.70;;;;;;2089504;28;20183;-71
2022/03/06 02:47:49;;;;;;;11.77;5.47;;;-5.20;97.70;;;;;;2097499;28;20238;-71
2022/03/06 02:48:49;;;;;;;13.30;7.32;;;-5.30;97.50;;;;;;2097540;28;20179;-71
2022/03/06 02:49:51;;;;;;;12.87;5.77;;;-5.30;97.70;;;;;;2097539;28;20179;-71
2022/03/06 02:50:52;;;;;;;10.63;5.18;;;-5.30;97.60;;;;;;2097671;28;20262;-71
2022/03/06 02:51:53;;;;;;;11.20;5.82;;;-5.30;97.60;;;;;;2097518;28;20901;-70
2022/03/06 02:52:55;;;;;;;14.47;6.90;;;-5.20;97.60;;;;;;2097594;28;20209;-71
2022/03/06 02:53:56;;;;;;;10.10;5.47;;;-5.30;97.50;;;;;;2097322;28;20186;-70
2022/03/06 02:54:56;;;;;;;12.23;6.13;;;-5.30;97.50;;;;;;2097518;28;20193;-70
2022/03/06 02:55:58;;;;;;;15.23;6.87;;;-5.30;97.60;;;;;;2088816;28;20192;-71
2022/03/06 02:56:59;;;;;;;11.13;5.32;;;-5.30;97.70;;;;;;2089309;28;20186;-71
2022/03/06 02:58:00;;;;;;;14.17;5.93;;;-5.30;97.70;;;;;;2089216;28;20191;-71
2022/03/06 02:59:00;;;;;;;13.60;5.97;;;-5.30;97.70;;;;;;2089427;28;20218;-71
2022/03/06 03:00:08;;;;;;;13.43;6.73;;;-5.30;98.00;;;;;;2097563;28;20243;-70
2022/03/06 03:01:09;;;;;;;15.70;5.95;;;-5.30;98.00;;;;;;2096786;28;20168;-70
2022/03/06 03:02:10;;;;;;;12.20;6.40;;;-5.30;97.90;;;;;;2097482;28;20834;-70
2022/03/06 03:03:10;;;;;;;12.47;6.23;;;-5.30;97.90;;;;;;2097691;28;20175;-71
2022/03/06 03:04:12;;;;;;;12.13;5.73;;;-5.30;98.00;;;;;;2097529;28;20177;-70
2022/03/06 03:05:13;;;;;;;11.98;5.95;;;-5.20;98.00;;;;;;2097041;28;20743;-70
2022/03/06 03:06:14;;;;;;;14.13;5.80;;;-5.30;97.70;;;;;;2097420;28;20259;-72
2022/03/06 03:07:15;;;;;;;14.73;6.67;;;-5.30;97.80;;;;;;2097560;28;20179;-70
2022/03/06 03:08:15;;;;;;;13.70;6.73;;;-5.30;97.80;;;;;;2089654;28;20211;-72
2022/03/06 03:09:19;;;;;;;13.07;6.27;;;-5.30;97.70;;;;;;2089920;28;20411;-71
2022/03/06 03:10:23;;;;;;;12.00;5.60;;;-5.30;97.80;;;;;;2097519;28;20180;-70
2022/03/06 03:11:23;;;;;;;13.52;6.22;;;-5.30;97.90;;;;;;2097006;28;20224;-70
2022/03/06 03:12:24;;;;;;;13.57;6.33;;;-5.20;97.90;;;;;;2097590;28;20605;-71
2022/03/06 03:13:25;;;;;;;15.00;6.67;;;-5.20;97.90;;;;;;2097682;28;20182;-71
2022/03/06 03:14:26;;;;;;;11.97;6.20;;;-5.30;97.80;;;;;;2097477;28;20555;-71
2022/03/06 03:15:26;;;;;;;18.63;7.27;;;-5.30;97.90;;;;;;2096878;28;20579;-70
2022/03/06 03:16:27;;;;;;;11.77;6.20;;;-5.30;98.10;;;;;;2097374;28;20210;-70
2022/03/06 03:17:28;;;;;;;11.90;6.00;;;-5.30;98.30;;;;;;2089288;28;20180;-70
2022/03/06 03:18:29;;;;;;;13.67;5.97;;;-5.30;98.20;;;;;;2088432;28;20451;-71
2022/03/06 03:19:30;;;;;;;13.77;6.40;;;-5.30;97.80;;;;;;2089918;28;20212;-71
2022/03/06 03:20:31;;;;;;;16.03;6.63;;;-5.40;98.10;;;;;;2089807;28;20240;-71
2022/03/06 03:21:32;;;;;;;14.55;6.13;;;-5.30;98.20;;;;;;2097462;28;20168;-70
2022/03/06 03:22:33;;;;;;;14.43;6.30;;;-5.40;98.30;;;;;;2097126;28;20185;-71
2022/03/06 03:23:34;;;;;;;15.20;6.47;;;-5.30;98.60;;;;;;2089059;28;20569;-71
2022/03/06 03:24:34;;;;;;;13.10;5.80;;;-5.30;98.70;;;;;;2089198;28;20180;-71
2022/03/06 03:25:35;;;;;;;14.93;6.50;;;-5.30;98.50;;;;;;2088574;28;20187;-70
2022/03/06 03:26:35;;;;;;;14.93;6.27;;;-5.20;98.30;;;;;;2081003;28;20176;-70
2022/03/06 03:27:37;;;;;;;14.57;6.77;;;-5.30;98.00;;;;;;2080788;28;20729;-71
2022/03/06 03:28:38;;;;;;;12.25;6.53;;;-5.30;98.00;;;;;;2081182;28;20679;-71
2022/03/06 03:29:38;;;;;;;10.87;5.60;;;-5.30;98.20;;;;;;2089222;28;20206;-70
2022/03/06 03:30:39;;;;;;;9.77;5.87;;;-5.30;98.10;;;;;;2089603;28;20173;-70
2022/03/06 03:31:40;;;;;;;11.73;6.20;;;-5.30;98.50;;;;;;2089071;28;20192;-71
2022/03/06 03:32:40;;;;;;;11.87;5.97;;;-5.30;98.50;;;;;;2080762;28;20188;-70
2022/03/06 03:33:41;;;;;;;11.70;6.10;;;-5.30;98.30;;;;;;2089087;28;20180;-70
2022/03/06 03:34:42;;;;;;;14.40;6.60;;;-5.30;98.10;;;;;;2097422;28;20668;-71
2022/03/06 03:35:42;;;;;;;13.60;5.97;;;-5.40;98.40;;;;;;2089095;28;20577;-71
2022/03/06 03:36:43;;;;;;;14.77;6.93;;;-5.30;98.40;;;;;;2089728;28;20189;-71
2022/03/06 03:37:44;;;;;;;15.33;6.63;;;-5.30;98.50;;;;;;2089452;28;20184;-70
2022/03/06 03:38:45;;;;;;;12.40;6.97;;;-5.40;98.60;;;;;;2089721;28;20236;-71
2022/03/06 03:39:46;;;;;;;12.43;6.45;;;-5.40;98.70;;;;;;2089570;28;20179;-71
2022/03/06 03:40:47;;;;;;;13.50;6.50;;;-5.40;98.70;;;;;;2089626;28;20189;-71
2022/03/06 03:41:47;;;;;;;12.73;6.17;;;-5.40;99.10;;;;;;2097223;28;20182;-71
2022/03/06 03:42:48;;;;;;;12.60;6.83;;;-5.40;99.10;;;;;;2097411;28;20714;-71
2022/03/06 03:43:49;;;;;;;10.77;5.93;;;-5.40;98.90;;;;;;2089558;28;20190;-71
2022/03/06 03:44:50;;;;;;;13.15;6.40;;;-5.40;98.80;;;;;;2097394;28;20572;-71
2022/03/06 03:45:50;;;;;;;14.10;6.83;;;-5.30;98.90;;;;;;2096604;28;20187;-71
2022/03/06 03:46:51;;;;;;;13.67;7.10;;;-5.40;99.00;;;;;;2097276;28;20179;-71
2022/03/06 03:47:52;;;;;;;14.10;6.17;;;-5.40;98.80;;;;;;2097094;28;20215;-72
2022/03/06 03:48:52;;;;;;;13.97;7.23;;;-5.40;98.80;;;;;;2097282;28;20608;-70
2022/03/06 03:49:53;;;;;;;11.43;6.13;;;-5.30;98.70;;;;;;2097242;28;20230;-70
2022/03/06 03:50:55;;;;;;;12.77;6.17;;;-5.30;98.70;;;;;;2097226;28;20263;-71
2022/03/06 03:51:56;;;;;;;12.15;6.35;;;-5.40;98.40;;;;;;2097049;28;20658;-71
2022/03/06 03:52:56;;;;;;;12.53;6.50;;;-5.30;98.70;;;;;;2097099;28;20183;-71
2022/03/06 03:53:57;;;;;;;13.43;6.13;;;-5.30;99.30;;;;;;2089315;28;20528;-71
2022/03/06 03:54:57;;;;;;;15.77;6.37;;;-5.30;98.60;;;;;;2089529;28;20553;-71
2022/03/06 03:55:58;;;;;;;11.80;6.57;;;-5.30;98.40;;;;;;2088886;28;20250;-70
2022/03/06 03:56:59;;;;;;;16.90;6.63;;;-5.30;98.30;;;;;;2097192;28;20207;-70
2022/03/06 03:57:59;;;;;;;15.13;6.30;;;-5.30;98.30;;;;;;2096918;28;20191;-71
2022/03/06 03:59:00;;;;;;;11.13;6.23;;;-5.20;98.30;;;;;;2097091;28;20210;-71
2022/03/06 04:00:01;;;;;;;10.23;6.63;;;-5.20;98.20;;;;;;2096998;28;20190;-70
2022/03/06 04:01:02;;;;;;;13.70;6.72;;;-5.30;98.00;;;;;;2097227;28;20175;-71
2022/03/06 04:02:03;;;;;;;13.00;6.78;;;-5.30;98.00;;;;;;2097075;28;20265;-72
2022/03/06 04:03:04;;;;;;;11.93;6.40;;;-5.40;98.10;;;;;;2088963;28;20701;-71
2022/03/06 04:04:05;;;;;;;14.27;6.57;;;-5.40;98.50;;;;;;2089375;28;20431;-71
2022/03/06 04:05:06;;;;;;;14.87;7.50;;;-5.40;98.50;;;;;;2096963;28;20225;-70
2022/03/06 04:06:07;;;;;;;11.85;6.78;;;-5.40;98.70;;;;;;2096642;28;20186;-71
2022/03/06 04:07:07;;;;;;;12.87;6.50;;;-5.40;98.70;;;;;;2089408;28;20230;-71
2022/03/06 04:08:08;;;;;;;15.97;7.67;;;-5.40;98.90;;;;;;2089335;28;20303;-70
2022/03/06 04:09:09;;;;;;;13.17;6.67;;;-5.40;99.00;;;;;;2097189;28;20187;-70
2022/03/06 04:10:10;;;;;;;14.73;6.93;;;-5.40;99.30;;;;;;2096991;28;20176;-70
2022/03/06 04:11:11;;;;;;;14.23;6.60;;;-5.40;99.30;;;;;;2089496;28;20326;-70
2022/03/06 04:12:11;;;;;;;12.27;6.87;;;-5.40;99.40;;;;;;2089365;28;20179;-70
2022/03/06 04:13:12;;;;;;;13.40;7.67;;;-5.40;99.40;;;;;;2096799;28;20879;-70
2022/03/06 04:14:13;;;;;;;20.50;7.33;;;-5.50;99.20;;;;;;2091730;28;20186;-70
2022/03/06 04:15:13;;;;;;;13.40;6.00;;;-5.40;99.30;;;;;;2096183;28;20183;-71
2022/03/06 04:16:14;;;;;;;13.97;7.20;;;-5.40;99.00;;;;;;2088660;28;20202;-71
2022/03/06 04:17:15;;;;;;;15.17;8.00;;;-5.40;99.10;;;;;;2088663;28;20652;-71
2022/03/06 04:18:15;;;;;;;13.33;6.23;;;-5.50;99.40;;;;;;2097145;28;20194;-70
2022/03/06 04:19:16;;;;;;;11.90;5.93;;;-5.50;99.70;;;;;;2096884;28;20182;-70
2022/03/06 04:20:17;;;;;;;10.27;5.90;;;-5.40;99.70;;;;;;2097621;28;20214;-70
2022/03/06 04:21:17;;;;;;;10.97;6.13;;;-5.40;99.70;;;;;;2097495;28;20187;-70
2022/03/06 04:22:18;;;;;;;14.53;6.40;;;-5.40;99.80;;;;;;2097507;28;20650;-71
2022/03/06 04:23:19;;;;;;;14.07;6.07;;;-5.50;99.80;;;;;;2097475;28;20617;-71
2022/03/06 04:24:19;;;;;;;14.03;6.70;;;-5.50;99.80;;;;;;2096967;28;20184;-70
2022/03/06 04:25:20;;;;;;;13.17;6.20;;;-5.50;99.80;;;;;;2079703;28;20190;-71
2022/03/06 04:26:21;;;;;;;12.00;6.47;;;-5.50;99.80;;;;;;2088803;28;20169;-71
2022/03/06 04:27:21;;;;;;;13.67;6.77;;;-5.50;99.90;;;;;;2097410;28;20191;-71
2022/03/06 04:28:22;;;;;;;15.07;7.00;;;-5.50;99.80;;;;;;2097062;28;20215;-71
2022/03/06 04:29:23;;;;;;;11.87;6.40;;;-5.50;99.70;;;;;;2096278;28;20625;-70
2022/03/06 04:30:25;;;;;;;14.23;6.87;;;-5.50;99.70;;;;;;2091468;28;20225;-71
2022/03/06 04:31:26;;;;;;;13.02;6.65;;;-5.50;99.90;;;;;;2089153;28;20194;-70
2022/03/06 04:32:26;;;;;;;12.57;6.20;;;-5.50;99.70;;;;;;2088665;28;20188;-71
2022/03/06 04:33:27;;;;;;;13.80;7.03;;;-5.50;99.60;;;;;;2088527;28;20182;-70
2022/03/06 04:34:28;;;;;;;12.43;6.67;;;-5.50;99.70;;;;;;2088887;28;20191;-70
2022/03/06 04:35:29;;;;;;;11.20;6.22;;;-5.50;99.80;;;;;;2088570;28;20183;-70
2022/03/06 04:36:30;;;;;;;14.10;7.10;;;-5.50;99.90;;;;;;2088362;28;20188;-70
2022/03/06 04:37:31;;;;;;;11.93;6.47;;;-5.50;99.70;;;;;;2080037;28;20657;-70
2022/03/06 04:38:31;;;;;;;14.17;6.13;;;-5.50;99.60;;;;;;2088809;28;20636;-71
2022/03/06 04:39:32;;;;;;;12.27;6.20;;;-5.50;99.80;;;;;;2088494;28;20179;-71
2022/03/06 04:40:32;;;;;;;11.63;6.43;;;-5.50;99.90;;;;;;2088600;28;20739;-71
2022/03/06 04:41:33;;;;;;;15.17;7.13;;;-5.60;99.60;;;;;;2096611;28;20606;-70
2022/03/06 04:42:34;;;;;;;15.93;7.53;;;-5.60;99.60;;;;;;2096780;28;20209;-70
2022/03/06 04:43:35;;;;;;;14.27;6.17;;;-5.60;99.60;;;;;;2096885;28;20861;-71
2022/03/06 04:44:35;;;;;;;16.00;6.70;;;-5.70;99.80;;;;;;2089217;28;20191;-70
2022/03/06 04:45:36;;;;;;;13.23;6.40;;;-5.60;99.90;;;;;;2088572;28;20191;-70
2022/03/06 04:46:37;;;;;;;12.33;6.40;;;-5.60;99.90;;;;;;2089206;28;20187;-71
2022/03/06 04:47:38;;;;;;;14.93;6.90;;;-5.60;99.90;;;;;;2089128;28;20194;-71
2022/03/06 04:48:39;;;;;;;11.95;6.00;;;-5.50;99.90;;;;;;2089437;28;20282;-72
2022/03/06 04:49:39;;;;;;;14.35;6.45;;;-5.50;99.70;;;;;;2088598;28;20204;-71
2022/03/06 04:50:40;;;;;;;11.97;6.23;;;-5.60;99.40;;;;;;2080183;28;20176;-70
2022/03/06 04:51:41;;;;;;;10.33;5.40;;;-5.60;99.70;;;;;;2080294;28;20185;-70
2022/03/06 04:52:42;;;;;;;15.07;6.40;;;-5.60;99.60;;;;;;2096594;28;20183;-70
2022/03/06 04:53:43;;;;;;;10.40;5.50;;;-5.60;99.40;;;;;;2088604;28;20175;-71
2022/03/06 04:54:43;;;;;;;12.90;5.95;;;-5.60;99.40;;;;;;2088367;28;20768;-70
2022/03/06 04:55:44;;;;;;;19.43;8.70;;;-5.60;99.90;;;;;;2088530;28;20180;-71
2022/03/06 04:56:45;;;;;;;13.33;6.43;;;-5.60;99.40;;;;;;2089089;28;20187;-71
2022/03/06 04:57:47;;;;;;;13.27;6.30;;;-5.60;99.50;;;;;;2088986;28;20176;-70
2022/03/06 04:58:47;;;;;;;10.25;5.70;;;-5.60;99.60;;;;;;2088211;28;20566;-71
2022/03/06 04:59:48;;;;;;;11.53;5.93;;;-5.60;99.60;;;;;;2080118;28;20206;-71
2022/03/06 05:00:49;;;;;;;13.83;7.30;;;-5.60;99.60;;;;;;2088585;28;20275;-71
2022/03/06 05:01:49;;;;;;;8.57;5.57;;;-5.60;99.70;;;;;;2089006;28;20195;-71
2022/03/06 05:02:50;;;;;;;10.17;5.07;;;-5.60;99.70;;;;;;2096617;28;20191;-71
2022/03/06 05:03:51;;;;;;;15.47;7.33;;;-5.60;99.80;;;;;;2096636;28;20603;-71
2022/03/06 05:04:51;;;;;;;13.47;6.97;;;-5.60;99.80;;;;;;2088270;28;20188;-70
2022/03/06 05:05:52;;;;;;;13.07;6.43;;;-5.70;99.60;;;;;;2088017;28;20678;-70
2022/03/06 05:06:53;;;;;;;15.03;7.10;;;-5.60;99.70;;;;;;2088921;28;20712;-70
2022/03/06 05:07:53;;;;;;;12.23;6.73;;;-5.70;99.60;;;;;;2096670;28;20253;-70
2022/03/06 05:08:54;;;;;;;15.93;7.80;;;-5.70;99.90;;;;;;2088154;28;20178;-71
2022/03/06 05:09:55;;;;;;;15.00;6.73;;;-5.70;99.90;;;;;;2080140;28;20184;-71
2022/03/06 05:10:56;;;;;;;15.77;7.50;;;-5.70;99.90;;;;;;2088280;28;20182;-70
2022/03/06 05:11:56;;;;;;;14.23;6.60;;;-5.70;99.90;;;;;;2088375;28;20176;-71
2022/03/06 05:12:57;;;;;;;12.03;6.27;;;-5.70;99.90;;;;;;2088280;28;20206;-71
2022/03/06 05:13:58;;;;;;;13.70;7.00;;;-5.70;99.90;;;;;;2088277;28;20213;-71
2022/03/06 05:14:58;;;;;;;12.23;6.67;;;-5.80;99.90;;;;;;2080017;28;20173;-71